createdAt,value
2019-02-02T00:00:00.330Z,79.90
2019-02-02T00:02:09.964Z,79.97
2019-02-02T00:04:17.606Z,79.95
2019-02-02T00:06:36.557Z,80.14
2019-02-02T00:08:43.331Z,80.16
2019-02-02T00:10:50.490Z,80.17
2019-02-02T00:12:57.400Z,80.17
2019-02-02T00:15:07.051Z,80.25
2019-02-02T00:17:45.161Z,80.23
2019-02-02T00:20:08.130Z,80.23
2019-02-02T00:22:24.632Z,80.37
2019-02-02T00:24:41.452Z,80.53
2019-02-02T00:26:54.460Z,80.72
2019-02-02T00:29:00.512Z,80.97
2019-02-02T00:31:07.993Z,81.36
2019-02-02T00:33:14.392Z,81.62
2019-02-02T00:35:42.232Z,81.68
2019-02-02T00:37:48.699Z,81.86
2019-02-02T00:39:56.396Z,82.11
2019-02-02T00:42:08.469Z,82.21
2019-02-02T00:44:41.679Z,82.26
2019-02-02T00:46:54.389Z,82.48
2019-02-02T00:49:03.188Z,82.49
2019-02-02T00:51:09.239Z,82.47
2019-02-02T00:55:54.228Z,82.60
2019-02-02T01:00:35.035Z,82.81
2019-02-02T01:02:51.797Z,82.95
2019-02-02T01:04:57.698Z,83.18
2019-02-02T01:07:05.083Z,83.09
2019-02-02T01:09:16.233Z,83.17
2019-02-02T01:11:51.326Z,83.39
2019-02-02T01:16:28.503Z,83.83
2019-02-02T01:18:40.889Z,84.04
2019-02-02T01:20:50.127Z,84.35
2019-02-02T01:22:56.819Z,84.36
2019-02-02T01:25:09.608Z,84.29
2019-02-02T01:27:17.168Z,84.51
2019-02-02T01:29:35.608Z,84.64
2019-02-02T01:31:42.008Z,84.70
2019-02-02T01:33:48.550Z,84.80
2019-02-02T01:35:58.129Z,84.99
2019-02-02T01:38:05.053Z,85.15
2019-02-02T01:40:24.333Z,85.35
2019-02-02T01:42:30.627Z,85.50
2019-02-02T01:44:44.450Z,85.61
2019-02-02T01:46:50.707Z,85.70
2019-02-02T01:48:58.078Z,85.92
2019-02-02T01:53:45.937Z,86.14
2019-02-02T01:55:52.688Z,86.28
2019-02-02T01:58:19.667Z,86.57
2019-02-02T02:00:36.048Z,86.65
2019-02-02T02:02:42.109Z,86.96
2019-02-02T02:04:48.357Z,86.95
2019-02-02T02:07:03.847Z,86.94
2019-02-02T02:09:09.987Z,87.10
2019-02-02T02:13:47.819Z,87.16
2019-02-02T02:15:54.691Z,87.28
2019-02-02T02:18:19.691Z,87.44
2019-02-02T02:20:49.792Z,87.58
2019-02-02T02:22:55.853Z,87.74
2019-02-02T02:25:49.433Z,87.74
2019-02-02T02:27:55.791Z,87.88
2019-02-02T02:30:13.303Z,87.93
2019-02-02T02:32:35.003Z,88.15
2019-02-02T02:34:33.407Z,88.26
2019-02-02T02:36:39.460Z,88.47
2019-02-02T02:39:10.217Z,88.51
2019-02-02T02:41:17.136Z,88.63
2019-02-02T02:43:23.456Z,88.95
2019-02-02T02:45:47.679Z,89.11
2019-02-02T02:47:54.582Z,89.05
2019-02-02T02:50:02.692Z,89.06
2019-02-02T02:52:19.196Z,89.16
2019-02-02T02:54:25.367Z,89.09
2019-02-02T02:56:32.939Z,89.19
2019-02-02T02:58:42.797Z,89.31
2019-02-02T03:01:06.450Z,89.46
2019-02-02T03:03:30.727Z,89.58
2019-02-02T03:05:36.780Z,89.67
2019-02-02T03:07:55.929Z,89.63
2019-02-02T03:10:02.019Z,89.72
2019-02-02T03:12:38.790Z,89.77
2019-02-02T03:14:45.260Z,89.87
2019-02-02T03:16:58.891Z,89.95
2019-02-02T03:19:06.471Z,90.15
2019-02-02T03:21:13.650Z,90.16
2019-02-02T03:23:24.000Z,90.18
2019-02-02T03:31:01.145Z,90.32
2019-02-02T03:33:07.309Z,90.34
2019-02-02T03:35:19.199Z,90.41
2019-02-02T03:37:27.074Z,90.48
2019-02-02T03:39:36.012Z,90.51
2019-02-02T03:42:05.723Z,90.49
2019-02-02T03:44:11.956Z,90.60
2019-02-02T03:46:18.131Z,90.57
2019-02-02T03:48:24.806Z,90.58
2019-02-02T03:50:30.985Z,90.64
2019-02-02T03:52:37.379Z,90.58
2019-02-02T03:54:43.694Z,90.64
2019-02-02T03:56:52.410Z,90.61
2019-02-02T03:59:06.715Z,90.66
2019-02-02T04:01:08.450Z,90.71
2019-02-02T04:03:30.551Z,90.72
2019-02-02T04:05:36.722Z,90.73
2019-02-02T04:07:43.762Z,90.62
2019-02-02T04:09:56.353Z,90.54
2019-02-02T04:12:03.033Z,90.57
2019-02-02T04:14:09.493Z,90.56
2019-02-02T04:16:43.136Z,90.53
2019-02-02T04:19:09.153Z,90.52
2019-02-02T04:21:24.812Z,90.49
2019-02-02T04:23:31.853Z,90.42
2019-02-02T04:25:58.800Z,90.45
2019-02-02T04:28:05.275Z,90.53
2019-02-02T04:30:30.254Z,90.51
2019-02-02T04:32:36.573Z,90.56
2019-02-02T04:34:42.973Z,90.57
2019-02-02T04:39:30.749Z,90.60
2019-02-02T04:41:45.833Z,90.62
2019-02-02T04:44:14.153Z,90.61
2019-02-02T04:46:35.593Z,90.57
2019-02-02T04:48:42.553Z,90.49
2019-02-02T04:50:49.172Z,90.45
2019-02-02T04:53:05.613Z,90.46
2019-02-02T04:55:34.100Z,90.52
2019-02-02T04:57:44.215Z,90.47
2019-02-02T04:59:53.053Z,90.36
2019-02-02T05:02:11.753Z,90.29
2019-02-02T05:04:18.039Z,90.34
2019-02-02T05:06:24.194Z,90.47
2019-02-02T05:08:36.614Z,91.03
2019-02-02T05:13:20.565Z,90.20
2019-02-02T05:15:33.014Z,90.75
2019-02-02T05:17:49.333Z,90.55
2019-02-02T05:19:55.574Z,89.69
2019-02-02T05:22:01.591Z,89.95
2019-02-02T05:24:38.973Z,89.16
2019-02-02T05:26:46.822Z,88.97
2019-02-02T05:29:05.006Z,89.50
2019-02-02T05:31:11.371Z,88.86
2019-02-02T05:33:23.461Z,88.57
2019-02-02T05:35:30.243Z,88.64
2019-02-02T05:37:45.453Z,88.95
2019-02-02T05:40:24.495Z,89.26
2019-02-02T05:43:12.995Z,89.46
2019-02-02T05:45:39.035Z,89.63
2019-02-02T05:47:56.945Z,89.83
2019-02-02T05:50:03.006Z,89.93
2019-02-02T05:54:25.047Z,90.13
2019-02-02T05:56:31.305Z,90.15
2019-02-02T05:58:37.745Z,90.25
2019-02-02T06:00:45.661Z,90.40
2019-02-02T06:03:06.793Z,90.49
2019-02-02T06:05:13.036Z,90.66
2019-02-02T06:07:19.086Z,90.73
2019-02-02T06:10:12.724Z,90.78
2019-02-02T06:11:59.864Z,90.92
2019-02-02T06:14:16.887Z,91.03
2019-02-02T06:18:34.626Z,91.11
2019-02-02T06:19:39.297Z,91.05
2019-02-02T06:20:41.253Z,91.20
2019-02-02T06:22:57.475Z,91.28
2019-02-02T06:25:12.425Z,91.39
2019-02-02T06:30:21.899Z,91.32
2019-02-02T06:32:38.849Z,91.38
2019-02-02T06:34:45.799Z,91.45
2019-02-02T06:36:52.360Z,91.49
2019-02-02T06:39:00.490Z,91.48
2019-02-02T06:41:08.751Z,91.59
2019-02-02T06:43:15.129Z,91.69
2019-02-02T06:45:31.149Z,91.60
2019-02-02T06:47:37.499Z,91.48
2019-02-02T06:49:43.978Z,91.28
2019-02-02T06:51:50.209Z,91.17
2019-02-02T06:53:57.588Z,91.05
2019-02-02T06:56:03.918Z,90.89
2019-02-02T06:58:10.448Z,90.72
2019-02-02T07:00:29.778Z,90.55
2019-02-02T07:02:36.477Z,90.49
2019-02-02T07:04:43.809Z,90.28
2019-02-02T07:06:51.112Z,89.89
2019-02-02T07:08:57.539Z,89.79
2019-02-02T07:11:04.441Z,89.50
2019-02-02T07:13:10.885Z,89.33
2019-02-02T07:15:29.079Z,89.05
2019-02-02T07:17:35.339Z,88.78
2019-02-02T07:19:41.859Z,88.79
2019-02-02T07:21:48.489Z,88.56
2019-02-02T07:23:54.979Z,88.34
2019-02-02T07:26:04.979Z,88.03
2019-02-02T07:28:11.748Z,88.22
2019-02-02T07:30:29.459Z,88.06
2019-02-02T07:32:35.929Z,87.94
2019-02-02T07:34:42.312Z,87.52
2019-02-02T07:36:48.573Z,87.47
2019-02-02T07:38:56.583Z,87.40
2019-02-02T07:41:04.583Z,87.20
2019-02-02T07:43:11.255Z,87.34
2019-02-02T07:45:21.167Z,87.21
2019-02-02T07:47:27.575Z,87.17
2019-02-02T07:49:35.165Z,87.26
2019-02-02T07:51:47.701Z,87.00
2019-02-02T07:53:55.637Z,86.94
2019-02-02T07:56:06.887Z,87.03
2019-02-02T08:00:45.385Z,86.78
2019-02-02T08:02:51.894Z,86.44
2019-02-02T08:04:58.738Z,86.44
2019-02-02T08:07:05.057Z,86.34
2019-02-02T08:09:11.822Z,86.19
2019-02-02T08:11:18.347Z,86.06
2019-02-02T08:13:24.739Z,85.83
2019-02-02T08:15:34.900Z,85.86
2019-02-02T08:17:41.534Z,85.88
2019-02-02T08:19:48.053Z,85.75
2019-02-02T08:21:54.634Z,85.74
2019-02-02T08:24:02.060Z,85.78
2019-02-02T08:26:08.606Z,85.54
2019-02-02T08:28:16.587Z,85.48
2019-02-02T08:30:26.322Z,85.45
2019-02-02T08:32:34.283Z,85.31
2019-02-02T08:34:41.891Z,85.28
2019-02-02T08:36:49.957Z,85.24
2019-02-02T08:39:00.143Z,85.23
2019-02-02T08:41:07.601Z,84.93
2019-02-02T08:43:15.346Z,84.96
2019-02-02T08:45:22.147Z,84.40
2019-02-02T08:47:28.806Z,84.53
2019-02-02T08:49:34.895Z,84.59
2019-02-02T08:51:41.718Z,84.30
2019-02-02T08:53:48.768Z,84.21
2019-02-02T08:55:55.075Z,84.16
2019-02-02T08:58:05.029Z,84.21
2019-02-02T09:00:19.490Z,84.32
2019-02-02T09:02:26.134Z,84.27
2019-02-02T09:04:32.540Z,84.41
2019-02-02T09:06:40.547Z,84.34
2019-02-02T09:08:47.066Z,84.23
2019-02-02T09:10:53.857Z,84.13
2019-02-02T09:13:00.549Z,84.22
2019-02-02T09:15:11.124Z,84.17
2019-02-02T09:17:17.605Z,83.89
2019-02-02T09:19:23.987Z,83.91
2019-02-02T09:21:30.627Z,83.93
2019-02-02T09:23:36.997Z,83.73
2019-02-02T09:25:44.816Z,83.37
2019-02-02T09:27:52.361Z,83.66
2019-02-02T09:29:58.757Z,83.29
2019-02-02T09:32:06.120Z,83.17
2019-02-02T09:34:13.570Z,83.00
2019-02-02T09:36:20.381Z,82.87
2019-02-02T09:38:26.952Z,82.66
2019-02-02T09:40:34.347Z,82.30
2019-02-02T09:42:40.837Z,82.41
2019-02-02T09:44:46.987Z,82.09
2019-02-02T09:46:54.466Z,82.04
2019-02-02T09:49:01.547Z,82.01
2019-02-02T09:51:08.244Z,81.96
2019-02-02T09:53:14.807Z,82.14
2019-02-02T09:55:25.639Z,82.37
2019-02-02T09:57:32.128Z,82.10
2019-02-02T09:59:44.118Z,82.27
2019-02-02T10:01:50.807Z,82.01
2019-02-02T10:03:59.157Z,82.35
2019-02-02T10:06:11.616Z,82.19
2019-02-02T10:08:23.107Z,82.26
2019-02-02T10:10:33.308Z,81.83
2019-02-02T10:12:39.934Z,81.85
2019-02-02T10:14:50.917Z,81.60
2019-02-02T10:16:58.875Z,81.23
2019-02-02T10:19:06.207Z,81.47
2019-02-02T10:21:15.047Z,81.27
2019-02-02T10:23:21.718Z,81.41
2019-02-02T10:25:39.208Z,81.42
2019-02-02T10:27:47.137Z,81.29
2019-02-02T10:29:55.202Z,81.36
2019-02-02T10:32:07.597Z,81.08
2019-02-02T10:34:23.773Z,80.90
2019-02-02T10:36:31.917Z,81.22
2019-02-02T10:38:42.085Z,80.96
2019-02-02T10:40:50.027Z,80.98
2019-02-02T10:43:03.718Z,80.87
2019-02-02T10:45:16.453Z,80.86
2019-02-02T10:47:23.776Z,80.71
2019-02-02T10:49:32.096Z,80.70
2019-02-02T10:51:43.026Z,80.54
2019-02-02T10:53:51.364Z,80.50
2019-02-02T10:56:01.687Z,80.36
2019-02-02T10:58:10.109Z,80.09
2019-02-02T11:00:32.093Z,79.61
2019-02-02T11:02:41.583Z,79.84
2019-02-02T11:04:53.625Z,79.54
2019-02-02T11:07:01.836Z,79.69
2019-02-02T11:09:09.927Z,79.28
2019-02-02T11:11:20.962Z,79.19
2019-02-02T11:13:27.607Z,79.04
2019-02-02T11:15:33.901Z,78.03
2019-02-02T11:17:40.579Z,78.21
2019-02-02T11:19:47.027Z,77.26
2019-02-02T11:21:56.274Z,77.34
2019-02-02T11:24:02.771Z,76.83
2019-02-02T11:26:09.521Z,76.57
2019-02-02T11:28:15.985Z,76.49
2019-02-02T11:30:23.277Z,76.75
2019-02-02T11:32:31.326Z,76.58
2019-02-02T11:34:37.877Z,76.75
2019-02-02T11:36:44.717Z,76.34
2019-02-02T11:38:51.387Z,76.42
2019-02-02T11:40:58.091Z,76.23
2019-02-02T11:43:04.768Z,75.77
2019-02-02T11:45:14.077Z,75.93
2019-02-02T11:47:20.467Z,75.69
2019-02-02T11:49:27.641Z,76.00
2019-02-02T11:51:35.021Z,75.45
2019-02-02T11:53:42.794Z,75.48
2019-02-02T11:55:51.495Z,75.50
2019-02-02T11:57:58.993Z,75.74
2019-02-02T12:00:20.446Z,75.41
2019-02-02T12:02:25.278Z,75.73
2019-02-02T12:04:32.359Z,75.69
2019-02-02T12:06:38.708Z,76.13
2019-02-02T12:08:49.516Z,75.88
2019-02-02T12:11:01.080Z,75.87
2019-02-02T12:13:08.225Z,75.81
2019-02-02T12:15:17.839Z,75.45
2019-02-02T12:17:24.357Z,75.50
2019-02-02T12:19:30.752Z,75.21
2019-02-02T12:21:37.831Z,74.73
2019-02-02T12:23:44.113Z,74.66
2019-02-02T12:25:53.106Z,74.59
2019-02-02T12:27:59.597Z,74.59
2019-02-02T12:30:22.409Z,74.47
2019-02-02T12:32:29.229Z,74.51
2019-02-02T12:34:35.697Z,74.72
2019-02-02T12:36:42.523Z,74.89
2019-02-02T12:38:49.644Z,75.27
2019-02-02T12:40:56.139Z,75.27
2019-02-02T12:43:02.851Z,75.34
2019-02-02T12:45:16.627Z,75.60
2019-02-02T12:47:23.030Z,75.56
2019-02-02T12:49:29.669Z,75.59
2019-02-02T12:51:36.011Z,75.71
2019-02-02T12:53:42.833Z,75.64
2019-02-02T12:55:51.245Z,75.60
2019-02-02T12:57:57.570Z,75.61
2019-02-02T13:00:03.928Z,75.74
2019-02-02T13:02:10.442Z,75.63
2019-02-02T13:04:17.404Z,75.75
2019-02-02T13:06:24.426Z,75.59
2019-02-02T13:08:31.016Z,75.89
2019-02-02T13:10:38.374Z,75.88
2019-02-02T13:12:44.689Z,75.81
2019-02-02T13:14:52.041Z,75.70
2019-02-02T13:16:59.994Z,75.74
2019-02-02T13:19:07.286Z,75.83
2019-02-02T13:21:14.265Z,75.76
2019-02-02T13:23:21.018Z,75.89
2019-02-02T13:25:27.831Z,76.01
2019-02-02T13:27:34.512Z,76.06
2019-02-02T13:29:41.985Z,75.96
2019-02-02T13:31:48.446Z,75.73
2019-02-02T13:33:54.942Z,75.56
2019-02-02T13:36:01.500Z,75.28
2019-02-02T13:38:07.975Z,75.06
2019-02-02T13:40:18.326Z,74.91
2019-02-02T13:42:24.805Z,74.29
2019-02-02T13:44:31.436Z,74.11
2019-02-02T13:46:38.016Z,74.13
2019-02-02T13:48:45.321Z,74.15
2019-02-02T13:50:52.302Z,74.50
2019-02-02T13:52:59.123Z,74.84
2019-02-02T13:55:06.935Z,75.08
2019-02-02T13:57:13.699Z,75.43
2019-02-02T13:59:20.294Z,75.68
2019-02-02T14:01:27.169Z,76.02
2019-02-02T14:03:33.551Z,76.33
2019-02-02T14:05:40.520Z,76.50
2019-02-02T14:07:48.066Z,76.60
2019-02-02T14:09:55.270Z,76.55
2019-02-02T14:12:02.859Z,76.52
2019-02-02T14:14:09.741Z,76.54
2019-02-02T14:16:16.828Z,76.55
2019-02-02T14:18:23.440Z,76.69
2019-02-02T14:20:30.542Z,76.81
2019-02-02T14:22:37.553Z,76.83
2019-02-02T14:24:44.520Z,76.91
2019-02-02T14:26:51.059Z,76.94
2019-02-02T14:28:58.119Z,76.94
2019-02-02T14:31:05.171Z,76.90
2019-02-02T14:33:14.212Z,76.67
2019-02-02T14:35:26.383Z,76.50
2019-02-02T14:37:33.423Z,76.44
2019-02-02T14:39:40.424Z,76.30
2019-02-02T14:41:47.301Z,76.39
2019-02-02T14:43:55.845Z,76.49
2019-02-02T14:46:03.353Z,76.48
2019-02-02T14:48:10.364Z,76.55
2019-02-02T14:50:22.277Z,76.58
2019-02-02T14:52:29.922Z,76.53
2019-02-02T14:54:37.502Z,76.61
2019-02-02T14:56:47.884Z,76.73
2019-02-02T14:58:53.208Z,76.85
2019-02-02T15:01:00.246Z,76.94
2019-02-02T15:03:07.604Z,77.02
2019-02-02T15:05:15.232Z,77.15
2019-02-02T15:07:22.395Z,77.31
2019-02-02T15:09:29.312Z,77.49
2019-02-02T15:11:36.801Z,77.69
2019-02-02T15:13:43.678Z,77.84
2019-02-02T15:15:50.831Z,77.94
2019-02-02T15:17:58.053Z,77.91
2019-02-02T15:20:07.666Z,78.01
2019-02-02T15:22:14.529Z,78.12
2019-02-02T15:24:21.936Z,78.18
2019-02-02T15:26:28.861Z,78.28
2019-02-02T15:28:37.086Z,78.31
2019-02-02T15:30:59.671Z,78.35
2019-02-02T15:33:09.687Z,78.33
2019-02-02T15:35:17.949Z,78.14
2019-02-02T15:37:24.719Z,78.18
2019-02-02T15:39:31.626Z,78.23
2019-02-02T15:41:38.678Z,78.31
2019-02-02T15:43:45.565Z,78.23
2019-02-02T15:45:52.790Z,78.22
2019-02-02T15:48:01.379Z,78.30
2019-02-02T15:50:16.551Z,78.42
2019-02-02T15:52:23.909Z,78.34
2019-02-02T15:54:31.106Z,78.48
2019-02-02T15:56:38.165Z,78.57
2019-02-02T15:58:45.420Z,78.67
2019-02-02T16:00:52.716Z,78.75
2019-02-02T16:02:59.631Z,78.86
2019-02-02T16:05:13.280Z,78.89
2019-02-02T16:07:20.411Z,78.94
2019-02-02T16:09:27.421Z,78.95
2019-02-02T16:11:36.069Z,78.93
2019-02-02T16:13:43.298Z,78.99
2019-02-02T16:15:50.397Z,78.99
2019-02-02T16:17:57.967Z,78.98
2019-02-02T16:20:06.743Z,78.94
2019-02-02T16:22:13.881Z,78.96
2019-02-02T16:24:20.820Z,78.96
2019-02-02T16:26:27.849Z,78.88
2019-02-02T16:28:35.518Z,78.93
2019-02-02T16:30:44.057Z,78.98
2019-02-02T16:32:51.001Z,78.92
2019-02-02T16:34:58.238Z,79.02
2019-02-02T16:37:05.175Z,79.08
2019-02-02T16:39:12.062Z,79.08
2019-02-02T16:41:19.391Z,79.07
2019-02-02T16:43:27.250Z,79.01
2019-02-02T16:45:35.301Z,79.06
2019-02-02T16:47:42.009Z,79.04
2019-02-02T16:49:49.609Z,79.03
2019-02-02T16:51:56.498Z,78.87
2019-02-02T16:54:03.783Z,78.83
2019-02-02T16:56:10.756Z,78.87
2019-02-02T16:58:18.607Z,78.88
2019-02-02T17:00:34.615Z,78.88
2019-02-02T17:05:28.604Z,78.93
2019-02-02T17:07:37.748Z,79.00
2019-02-02T17:09:44.839Z,79.08
2019-02-02T17:11:52.180Z,79.09
2019-02-02T17:14:04.798Z,79.06
2019-02-02T17:16:24.244Z,78.91
2019-02-02T17:18:37.606Z,78.91
2019-02-02T17:20:46.660Z,79.00
2019-02-02T17:22:53.814Z,79.00
2019-02-02T17:25:00.677Z,79.00
2019-02-02T17:27:07.718Z,79.10
2019-02-02T17:29:16.056Z,79.26
2019-02-02T17:31:29.636Z,79.20
2019-02-02T17:33:36.839Z,79.24
2019-02-02T17:35:43.909Z,79.26
2019-02-02T17:37:51.316Z,79.10
2019-02-02T17:39:59.557Z,79.08
2019-02-02T17:42:06.745Z,79.18
2019-02-02T17:44:14.840Z,79.01
2019-02-02T17:46:21.727Z,78.95
2019-02-02T17:48:28.523Z,78.98
2019-02-02T17:50:35.569Z,79.03
2019-02-02T17:52:42.476Z,79.14
2019-02-02T17:54:50.248Z,79.11
2019-02-02T17:56:59.107Z,79.08
2019-02-02T17:59:06.453Z,79.14
2019-02-02T18:01:13.570Z,79.17
2019-02-02T18:03:20.490Z,79.11
2019-02-02T18:05:27.379Z,79.20
2019-02-02T18:07:34.279Z,78.90
2019-02-02T18:09:41.220Z,78.92
2019-02-02T18:11:48.357Z,79.04
2019-02-02T18:13:55.250Z,78.89
2019-02-02T18:16:02.246Z,78.83
2019-02-02T18:18:09.362Z,78.82
2019-02-02T18:20:17.614Z,78.89
2019-02-02T18:22:24.613Z,78.94
2019-02-02T18:24:31.915Z,79.09
2019-02-02T18:26:39.860Z,79.00
2019-02-02T18:28:53.933Z,79.00
2019-02-02T18:31:03.654Z,79.13
2019-02-02T18:33:11.307Z,79.23
2019-02-02T18:35:18.411Z,79.01
2019-02-02T18:37:25.360Z,79.35
2019-02-02T18:39:32.487Z,78.85
2019-02-02T18:44:02.869Z,78.97
2019-02-02T18:46:10.134Z,78.58
2019-02-02T18:48:17.009Z,78.42
2019-02-02T18:50:24.386Z,78.39
2019-02-02T18:52:31.851Z,78.47
2019-02-02T18:54:39.578Z,78.57
2019-02-02T18:56:46.930Z,78.71
2019-02-02T18:58:53.951Z,78.78
2019-02-02T19:01:01.403Z,78.94
2019-02-02T19:03:08.799Z,79.18
2019-02-02T19:05:15.934Z,79.59
2019-02-02T19:07:22.771Z,79.93
2019-02-02T19:09:31.177Z,80.20
2019-02-02T19:11:38.199Z,80.53
2019-02-02T19:13:45.171Z,80.86
2019-02-02T19:15:52.053Z,81.35
2019-02-02T19:17:58.780Z,81.33
2019-02-02T19:20:08.850Z,81.46
2019-02-02T19:22:15.869Z,81.49
2019-02-02T19:24:22.818Z,81.51
2019-02-02T19:26:29.978Z,81.35
2019-02-02T19:28:39.819Z,81.63
2019-02-02T19:30:46.492Z,81.62
2019-02-02T19:32:53.196Z,81.71
2019-02-02T19:35:00.349Z,81.96
2019-02-02T19:37:07.679Z,82.42
2019-02-02T19:39:14.526Z,82.75
2019-02-02T19:41:21.488Z,82.66
2019-02-02T19:43:28.639Z,82.82
2019-02-02T19:45:35.969Z,83.08
2019-02-02T19:47:43.200Z,83.31
2019-02-02T19:49:50.342Z,83.80
2019-02-02T19:51:57.381Z,84.32
2019-02-02T19:54:07.372Z,84.65
2019-02-02T19:56:13.859Z,84.97
2019-02-02T19:58:20.669Z,85.30
2019-02-02T20:00:34.139Z,85.71
2019-02-02T20:02:42.323Z,86.12
2019-02-02T20:04:49.510Z,86.67
2019-02-02T20:06:56.568Z,87.14
2019-02-02T20:09:03.919Z,87.63
2019-02-02T20:11:11.819Z,87.93
2019-02-02T20:13:19.578Z,88.53
2019-02-02T20:15:29.699Z,88.49
2019-02-02T20:17:36.804Z,88.60
2019-02-02T20:19:43.629Z,88.53
2019-02-02T20:21:50.571Z,88.31
2019-02-02T20:23:57.418Z,88.14
2019-02-02T20:26:04.370Z,88.02
2019-02-02T20:28:11.458Z,87.95
2019-02-02T20:30:28.075Z,87.99
2019-02-02T20:32:34.809Z,87.97
2019-02-02T20:34:41.852Z,88.09
2019-02-02T20:36:48.919Z,88.29
2019-02-02T20:38:56.059Z,88.26
2019-02-02T20:41:03.208Z,88.13
2019-02-02T20:43:10.269Z,88.10
2019-02-02T20:45:20.569Z,87.98
2019-02-02T20:47:27.638Z,87.92
2019-02-02T20:49:35.149Z,87.78
2019-02-02T20:51:42.810Z,87.66
2019-02-02T20:53:50.166Z,87.69
2019-02-02T20:55:57.129Z,87.59
2019-02-02T20:58:05.824Z,87.42
2019-02-02T21:00:16.419Z,87.46
2019-02-02T21:02:25.069Z,87.34
2019-02-02T21:04:32.219Z,87.31
2019-02-02T21:06:39.539Z,87.19
2019-02-02T21:08:46.413Z,87.12
2019-02-02T21:13:43.800Z,87.03
2019-02-02T21:15:57.459Z,86.88
2019-02-02T21:18:05.987Z,86.36
2019-02-02T21:20:19.569Z,85.79
2019-02-02T21:22:27.912Z,85.63
2019-02-02T21:24:35.010Z,85.44
2019-02-02T21:26:42.099Z,85.48
2019-02-02T21:28:50.729Z,84.86
2019-02-02T21:30:58.158Z,84.63
2019-02-02T21:33:05.665Z,84.30
2019-02-02T21:35:12.812Z,84.25
2019-02-02T21:37:20.149Z,84.14
2019-02-02T21:39:27.027Z,84.18
2019-02-02T21:41:34.206Z,84.27
2019-02-02T21:43:41.246Z,84.30
2019-02-02T21:45:48.313Z,84.50
2019-02-02T21:47:55.039Z,84.39
2019-02-02T21:50:01.927Z,84.66
2019-02-02T21:52:08.768Z,84.89
2019-02-02T21:54:15.839Z,84.89
2019-02-02T21:56:22.729Z,85.03
2019-02-02T21:58:29.586Z,84.89
2019-02-02T22:00:38.998Z,85.03
2019-02-02T22:02:45.918Z,84.99
2019-02-02T22:04:52.786Z,85.21
2019-02-02T22:07:00.569Z,85.04
2019-02-02T22:09:08.938Z,84.96
2019-02-02T22:11:15.482Z,84.96
2019-02-02T22:13:23.181Z,85.01
2019-02-02T22:15:30.710Z,85.06
2019-02-02T22:17:37.219Z,85.08
2019-02-02T22:19:45.339Z,85.13
2019-02-02T22:21:51.669Z,85.05
2019-02-02T22:23:58.269Z,85.11
2019-02-02T22:26:04.800Z,84.90
2019-02-02T22:28:11.477Z,84.92
2019-02-02T22:30:35.218Z,84.89
2019-02-02T22:32:41.979Z,85.03
2019-02-02T22:34:49.666Z,85.15
2019-02-02T22:36:56.400Z,85.19
2019-02-02T22:39:03.738Z,85.20
2019-02-02T22:41:09.995Z,85.34
2019-02-02T22:43:16.525Z,85.70
2019-02-02T22:45:23.206Z,86.21
2019-02-02T22:47:29.536Z,86.63
2019-02-02T22:49:35.900Z,86.97
2019-02-02T22:51:43.635Z,87.35
2019-02-02T22:53:50.282Z,87.64
2019-02-02T22:55:58.094Z,87.91
2019-02-02T22:58:04.782Z,88.15
2019-02-02T23:00:20.464Z,88.50
2019-02-02T23:02:27.087Z,88.83
2019-02-02T23:04:38.165Z,89.23
2019-02-02T23:07:07.777Z,89.41
2019-02-02T23:09:44.845Z,89.65
2019-02-02T23:12:16.524Z,89.91
2019-02-02T23:14:56.612Z,90.13
2019-02-02T23:17:03.672Z,90.39
2019-02-02T23:19:11.576Z,90.73
2019-02-02T23:21:18.216Z,90.84
2019-02-02T23:23:24.735Z,90.80
2019-02-02T23:25:30.965Z,90.52
2019-02-02T23:27:37.755Z,90.08
2019-02-02T23:29:44.058Z,89.63
2019-02-02T23:31:51.286Z,89.52
2019-02-02T23:33:57.695Z,89.33
2019-02-02T23:36:04.652Z,89.10
2019-02-02T23:38:11.136Z,88.86
2019-02-02T23:40:17.476Z,88.50
2019-02-02T23:42:24.387Z,88.49
2019-02-02T23:44:30.708Z,88.04
2019-02-02T23:46:37.172Z,87.92
2019-02-02T23:48:43.899Z,87.86
2019-02-02T23:50:50.453Z,87.72
2019-02-02T23:52:57.457Z,87.66
2019-02-02T23:55:04.008Z,87.57
2019-02-02T23:57:10.337Z,87.43
2019-02-02T23:59:16.621Z,87.46
